sensor_id;sensor_type;location;lat;lon;timestamp;pressure;altitude;pressure_sealevel;temperature;humidity
70011;BME280;59543;37.950;-122.338;2023-03-04T00:00:08;101369.88;;;14.82;50.12
70011;BME280;59543;37.950;-122.338;2023-03-04T00:02:34;101359.47;;;14.70;50.78
70011;BME280;59543;37.950;-122.338;2023-03-04T00:04:59;101351.59;;;14.84;51.11
70011;BME280;59543;37.950;-122.338;2023-03-04T00:07:27;101345.16;;;14.77;51.37
70011;BME280;59543;37.950;-122.338;2023-03-04T00:09:53;101348.13;;;14.66;51.30
70011;BME280;59543;37.950;-122.338;2023-03-04T00:12:19;101346.41;;;14.65;51.22
70011;BME280;59543;37.950;-122.338;2023-03-04T00:14:45;101346.13;;;14.68;51.37
70011;BME280;59543;37.950;-122.338;2023-03-04T00:17:11;101352.91;;;14.72;50.43
70011;BME280;59543;37.950;-122.338;2023-03-04T00:19:37;101350.34;;;14.45;51.46
70011;BME280;59543;37.950;-122.338;2023-03-04T00:22:03;101349.72;;;14.51;51.72
70011;BME280;59543;37.950;-122.338;2023-03-04T00:24:29;101344.53;;;14.57;50.66
70011;BME280;59543;37.950;-122.338;2023-03-04T00:26:55;101337.59;;;14.37;51.42
70011;BME280;59543;37.950;-122.338;2023-03-04T00:29:21;101329.38;;;14.21;50.43
70011;BME280;59543;37.950;-122.338;2023-03-04T00:31:47;101335.69;;;14.29;50.72
70011;BME280;59543;37.950;-122.338;2023-03-04T00:34:13;101331.59;;;14.25;50.30
70011;BME280;59543;37.950;-122.338;2023-03-04T00:36:38;101328.88;;;14.25;49.78
70011;BME280;59543;37.950;-122.338;2023-03-04T00:39:04;101330.59;;;14.26;50.34
70011;BME280;59543;37.950;-122.338;2023-03-04T00:41:30;101323.84;;;14.04;51.00
70011;BME280;59543;37.950;-122.338;2023-03-04T00:43:56;101332.28;;;13.83;51.21
70011;BME280;59543;37.950;-122.338;2023-03-04T00:46:22;101332.53;;;13.72;51.09
70011;BME280;59543;37.950;-122.338;2023-03-04T00:48:48;101326.13;;;13.73;51.51
70011;BME280;59543;37.950;-122.338;2023-03-04T00:51:13;101320.81;;;13.63;51.80
70011;BME280;59543;37.950;-122.338;2023-03-04T00:53:39;101307.59;;;13.60;52.62
70011;BME280;59543;37.950;-122.338;2023-03-04T00:56:05;101309.59;;;13.58;53.10
70011;BME280;59543;37.950;-122.338;2023-03-04T00:58:31;101311.84;;;13.63;52.19
70011;BME280;59543;37.950;-122.338;2023-03-04T01:00:57;101315.63;;;13.52;52.60
70011;BME280;59543;37.950;-122.338;2023-03-04T01:03:23;101319.34;;;13.51;52.98
70011;BME280;59543;37.950;-122.338;2023-03-04T01:05:51;101323.72;;;13.52;52.49
70011;BME280;59543;37.950;-122.338;2023-03-04T01:08:17;101321.03;;;13.52;53.15
70011;BME280;59543;37.950;-122.338;2023-03-04T01:10:42;101330.69;;;13.55;52.83
70011;BME280;59543;37.950;-122.338;2023-03-04T01:13:08;101345.34;;;13.34;53.93
70011;BME280;59543;37.950;-122.338;2023-03-04T01:15:34;101345.34;;;13.34;52.60
70011;BME280;59543;37.950;-122.338;2023-03-04T01:18:00;101334.03;;;13.21;52.13
70011;BME280;59543;37.950;-122.338;2023-03-04T01:20:26;101328.63;;;13.21;51.04
70011;BME280;59543;37.950;-122.338;2023-03-04T01:22:52;101339.03;;;12.88;51.30
70011;BME280;59543;37.950;-122.338;2023-03-04T01:25:17;101331.59;;;12.90;50.94
70011;BME280;59543;37.950;-122.338;2023-03-04T01:27:43;101338.44;;;12.57;51.56
70011;BME280;59543;37.950;-122.338;2023-03-04T01:30:09;101341.59;;;12.52;51.92
70011;BME280;59543;37.950;-122.338;2023-03-04T01:32:35;101339.97;;;12.22;51.83
70011;BME280;59543;37.950;-122.338;2023-03-04T01:35:01;101343.25;;;12.06;52.41
70011;BME280;59543;37.950;-122.338;2023-03-04T01:37:27;101344.78;;;12.09;52.28
70011;BME280;59543;37.950;-122.338;2023-03-04T01:39:53;101351.22;;;11.88;52.69
70011;BME280;59543;37.950;-122.338;2023-03-04T01:42:19;101349.34;;;11.79;53.35
70011;BME280;59543;37.950;-122.338;2023-03-04T01:44:46;101342.53;;;11.75;54.03
70011;BME280;59543;37.950;-122.338;2023-03-04T01:47:12;101343.50;;;11.55;54.27
70011;BME280;59543;37.950;-122.338;2023-03-04T01:49:38;101352.03;;;11.50;55.15
70011;BME280;59543;37.950;-122.338;2023-03-04T01:52:05;101336.28;;;11.55;54.90
70011;BME280;59543;37.950;-122.338;2023-03-04T01:54:31;101333.28;;;11.49;54.96
70011;BME280;59543;37.950;-122.338;2023-03-04T01:56:57;101339.22;;;11.23;55.22
70011;BME280;59543;37.950;-122.338;2023-03-04T01:59:25;101343.16;;;11.19;54.82
70011;BME280;59543;37.950;-122.338;2023-03-04T02:01:52;101341.81;;;10.94;55.33
70011;BME280;59543;37.950;-122.338;2023-03-04T02:04:19;101342.63;;;10.75;56.42
70011;BME280;59543;37.950;-122.338;2023-03-04T02:06:46;101347.13;;;10.44;55.99
70011;BME280;59543;37.950;-122.338;2023-03-04T02:09:12;101350.69;;;10.23;56.51
70011;BME280;59543;37.950;-122.338;2023-03-04T02:11:39;101349.56;;;10.26;56.96
70011;BME280;59543;37.950;-122.338;2023-03-04T02:14:05;101350.53;;;10.25;57.29
70011;BME280;59543;37.950;-122.338;2023-03-04T02:16:31;101344.50;;;9.91;58.22
70011;BME280;59543;37.950;-122.338;2023-03-04T02:18:57;101349.34;;;9.97;58.45
70011;BME280;59543;37.950;-122.338;2023-03-04T02:21:25;101347.88;;;9.93;58.19
70011;BME280;59543;37.950;-122.338;2023-03-04T02:26:18;101331.97;;;9.80;58.55
70011;BME280;59543;37.950;-122.338;2023-03-04T02:28:44;101340.72;;;9.61;58.33
70011;BME280;59543;37.950;-122.338;2023-03-04T02:31:23;101334.72;;;9.69;57.59
70011;BME280;59543;37.950;-122.338;2023-03-04T02:33:50;101335.09;;;9.64;58.65
70011;BME280;59543;37.950;-122.338;2023-03-04T02:36:16;101339.53;;;9.54;58.18
70011;BME280;59543;37.950;-122.338;2023-03-04T02:38:42;101345.28;;;9.49;58.78
70011;BME280;59543;37.950;-122.338;2023-03-04T02:41:10;101351.75;;;9.47;58.74
70011;BME280;59543;37.950;-122.338;2023-03-04T02:43:38;101342.47;;;9.51;58.71
70011;BME280;59543;37.950;-122.338;2023-03-04T02:46:04;101347.63;;;9.43;58.53
70011;BME280;59543;37.950;-122.338;2023-03-04T02:48:30;101341.09;;;9.56;58.50
70011;BME280;59543;37.950;-122.338;2023-03-04T02:50:56;101345.19;;;9.39;58.84
70011;BME280;59543;37.950;-122.338;2023-03-04T02:53:22;101360.59;;;9.26;58.59
70011;BME280;59543;37.950;-122.338;2023-03-04T02:55:49;101363.06;;;9.18;59.20
70011;BME280;59543;37.950;-122.338;2023-03-04T02:58:15;101359.41;;;9.08;59.77
70011;BME280;59543;37.950;-122.338;2023-03-04T03:00:42;101375.00;;;9.14;59.86
70011;BME280;59543;37.950;-122.338;2023-03-04T03:03:08;101367.34;;;9.09;59.47
70011;BME280;59543;37.950;-122.338;2023-03-04T03:05:34;101354.03;;;9.08;59.87
70011;BME280;59543;37.950;-122.338;2023-03-04T03:08:00;101355.16;;;8.83;60.82
70011;BME280;59543;37.950;-122.338;2023-03-04T03:10:26;101353.59;;;8.91;60.88
70011;BME280;59543;37.950;-122.338;2023-03-04T03:12:52;101362.84;;;8.99;60.15
70011;BME280;59543;37.950;-122.338;2023-03-04T03:15:18;101362.84;;;8.99;60.84
70011;BME280;59543;37.950;-122.338;2023-03-04T03:17:44;101357.25;;;8.90;60.65
70011;BME280;59543;37.950;-122.338;2023-03-04T03:20:11;101352.47;;;8.94;60.48
70011;BME280;59543;37.950;-122.338;2023-03-04T03:22:37;101345.38;;;9.04;60.46
70011;BME280;59543;37.950;-122.338;2023-03-04T03:25:03;101343.09;;;9.00;60.21
70011;BME280;59543;37.950;-122.338;2023-03-04T03:27:29;101343.69;;;9.03;60.30
70011;BME280;59543;37.950;-122.338;2023-03-04T03:29:55;101348.56;;;8.87;61.02
70011;BME280;59543;37.950;-122.338;2023-03-04T03:32:21;101340.41;;;8.88;61.08
70011;BME280;59543;37.950;-122.338;2023-03-04T03:34:47;101341.41;;;8.76;61.47
70011;BME280;59543;37.950;-122.338;2023-03-04T03:37:13;101345.66;;;8.56;62.71
70011;BME280;59543;37.950;-122.338;2023-03-04T03:39:39;101347.72;;;8.86;61.53
70011;BME280;59543;37.950;-122.338;2023-03-04T03:42:05;101363.09;;;8.73;62.37
70011;BME280;59543;37.950;-122.338;2023-03-04T03:44:31;101353.72;;;8.67;62.33
70011;BME280;59543;37.950;-122.338;2023-03-04T03:46:56;101361.13;;;8.53;62.83
70011;BME280;59543;37.950;-122.338;2023-03-04T03:49:22;101353.81;;;8.66;62.47
70011;BME280;59543;37.950;-122.338;2023-03-04T03:51:48;101358.47;;;8.64;62.21
70011;BME280;59543;37.950;-122.338;2023-03-04T03:54:14;101352.97;;;8.54;62.35
70011;BME280;59543;37.950;-122.338;2023-03-04T03:56:40;101350.53;;;8.62;62.05
70011;BME280;59543;37.950;-122.338;2023-03-04T03:59:06;101347.50;;;8.56;62.05
70011;BME280;59543;37.950;-122.338;2023-03-04T04:01:31;101343.34;;;8.52;62.64
70011;BME280;59543;37.950;-122.338;2023-03-04T04:03:58;101352.59;;;8.47;62.91
70011;BME280;59543;37.950;-122.338;2023-03-04T04:06:24;101348.16;;;8.35;63.16
70011;BME280;59543;37.950;-122.338;2023-03-04T04:08:50;101344.53;;;8.47;63.19
70011;BME280;59543;37.950;-122.338;2023-03-04T04:11:16;101329.44;;;8.46;62.99
70011;BME280;59543;37.950;-122.338;2023-03-04T04:13:42;101321.34;;;8.35;63.76
70011;BME280;59543;37.950;-122.338;2023-03-04T04:16:09;101312.16;;;8.39;63.14
70011;BME280;59543;37.950;-122.338;2023-03-04T04:18:35;101315.16;;;8.35;64.04
70011;BME280;59543;37.950;-122.338;2023-03-04T04:21:01;101305.75;;;8.29;64.47
70011;BME280;59543;37.950;-122.338;2023-03-04T04:23:27;101309.22;;;8.42;63.89
70011;BME280;59543;37.950;-122.338;2023-03-04T04:25:54;101309.03;;;8.33;64.21
70011;BME280;59543;37.950;-122.338;2023-03-04T04:28:20;101307.50;;;8.41;63.44
70011;BME280;59543;37.950;-122.338;2023-03-04T04:30:45;101316.38;;;8.42;63.23
70011;BME280;59543;37.950;-122.338;2023-03-04T04:33:12;101316.84;;;8.36;63.59
70011;BME280;59543;37.950;-122.338;2023-03-04T04:35:37;101315.53;;;8.41;62.61
70011;BME280;59543;37.950;-122.338;2023-03-04T04:38:04;101313.09;;;8.38;62.67
70011;BME280;59543;37.950;-122.338;2023-03-04T04:40:29;101308.59;;;8.39;62.96
70011;BME280;59543;37.950;-122.338;2023-03-04T04:42:55;101299.81;;;8.37;62.93
70011;BME280;59543;37.950;-122.338;2023-03-04T04:45:21;101296.13;;;8.38;63.00
70011;BME280;59543;37.950;-122.338;2023-03-04T04:47:49;101300.91;;;8.34;62.82
70011;BME280;59543;37.950;-122.338;2023-03-04T04:50:15;101288.19;;;8.36;62.98
70011;BME280;59543;37.950;-122.338;2023-03-04T04:52:41;101289.31;;;8.34;62.97
70011;BME280;59543;37.950;-122.338;2023-03-04T04:55:07;101288.09;;;8.38;63.10
70011;BME280;59543;37.950;-122.338;2023-03-04T04:57:33;101286.50;;;8.35;63.47
70011;BME280;59543;37.950;-122.338;2023-03-04T04:59:59;101299.22;;;8.44;63.90
70011;BME280;59543;37.950;-122.338;2023-03-04T05:02:24;101299.59;;;8.40;65.39
70011;BME280;59543;37.950;-122.338;2023-03-04T05:04:50;101293.38;;;8.39;65.65
70011;BME280;59543;37.950;-122.338;2023-03-04T05:07:16;101297.03;;;8.38;65.68
70011;BME280;59543;37.950;-122.338;2023-03-04T05:09:42;101295.09;;;8.40;66.09
70011;BME280;59543;37.950;-122.338;2023-03-04T05:12:08;101295.34;;;8.49;65.44
70011;BME280;59543;37.950;-122.338;2023-03-04T05:14:34;101298.09;;;8.24;66.28
70011;BME280;59543;37.950;-122.338;2023-03-04T05:17:00;101295.16;;;8.28;65.77
70011;BME280;59543;37.950;-122.338;2023-03-04T05:19:26;101290.41;;;8.31;65.75
70011;BME280;59543;37.950;-122.338;2023-03-04T05:21:52;101289.44;;;8.32;66.40
70011;BME280;59543;37.950;-122.338;2023-03-04T05:24:17;101284.78;;;8.23;67.42
70011;BME280;59543;37.950;-122.338;2023-03-04T05:26:43;101289.41;;;8.21;68.62
70011;BME280;59543;37.950;-122.338;2023-03-04T05:29:09;101302.34;;;8.16;68.54
70011;BME280;59543;37.950;-122.338;2023-03-04T05:31:35;101311.09;;;8.18;68.23
70011;BME280;59543;37.950;-122.338;2023-03-04T05:34:01;101325.72;;;8.14;67.92
70011;BME280;59543;37.950;-122.338;2023-03-04T05:36:27;101332.53;;;8.07;67.55
70011;BME280;59543;37.950;-122.338;2023-03-04T05:38:52;101339.81;;;8.05;67.68
70011;BME280;59543;37.950;-122.338;2023-03-04T05:41:18;101333.97;;;7.99;67.80
70011;BME280;59543;37.950;-122.338;2023-03-04T05:43:47;101322.00;;;7.92;68.06
70011;BME280;59543;37.950;-122.338;2023-03-04T05:46:13;101320.91;;;7.84;68.38
70011;BME280;59543;37.950;-122.338;2023-03-04T05:48:40;101325.69;;;7.91;68.11
70011;BME280;59543;37.950;-122.338;2023-03-04T05:51:06;101310.94;;;7.86;68.37
70011;BME280;59543;37.950;-122.338;2023-03-04T05:53:32;101312.72;;;7.74;69.08
70011;BME280;59543;37.950;-122.338;2023-03-04T05:56:12;101299.03;;;7.66;67.94
70011;BME280;59543;37.950;-122.338;2023-03-04T05:58:38;101307.13;;;7.77;67.77
70011;BME280;59543;37.950;-122.338;2023-03-04T06:01:04;101311.72;;;7.75;67.77
70011;BME280;59543;37.950;-122.338;2023-03-04T06:03:30;101307.66;;;7.58;68.35
70011;BME280;59543;37.950;-122.338;2023-03-04T06:05:56;101298.06;;;7.67;68.11
70011;BME280;59543;37.950;-122.338;2023-03-04T06:08:22;101295.78;;;7.73;68.24
70011;BME280;59543;37.950;-122.338;2023-03-04T06:10:50;101293.97;;;7.74;68.22
70011;BME280;59543;37.950;-122.338;2023-03-04T06:13:16;101297.22;;;7.66;68.48
70011;BME280;59543;37.950;-122.338;2023-03-04T06:15:42;101303.88;;;7.61;69.13
70011;BME280;59543;37.950;-122.338;2023-03-04T06:18:08;101309.66;;;7.67;69.20
70011;BME280;59543;37.950;-122.338;2023-03-04T06:20:34;101304.78;;;7.72;69.06
70011;BME280;59543;37.950;-122.338;2023-03-04T06:23:00;101304.91;;;7.71;69.32
70011;BME280;59543;37.950;-122.338;2023-03-04T06:25:26;101308.53;;;7.70;69.32
70011;BME280;59543;37.950;-122.338;2023-03-04T06:27:52;101311.34;;;7.68;69.45
70011;BME280;59543;37.950;-122.338;2023-03-04T06:30:18;101302.84;;;7.74;69.85
70011;BME280;59543;37.950;-122.338;2023-03-04T06:32:44;101281.94;;;7.79;68.90
70011;BME280;59543;37.950;-122.338;2023-03-04T06:35:11;101286.31;;;7.81;68.89
70011;BME280;59543;37.950;-122.338;2023-03-04T06:37:37;101283.03;;;7.77;68.62
70011;BME280;59543;37.950;-122.338;2023-03-04T06:40:03;101284.94;;;7.75;68.65
70011;BME280;59543;37.950;-122.338;2023-03-04T06:42:29;101274.84;;;7.78;68.65
70011;BME280;59543;37.950;-122.338;2023-03-04T06:44:55;101263.28;;;7.78;68.19
70011;BME280;59543;37.950;-122.338;2023-03-04T06:47:20;101257.44;;;7.73;68.09
70011;BME280;59543;37.950;-122.338;2023-03-04T06:49:46;101267.03;;;7.64;68.44
70011;BME280;59543;37.950;-122.338;2023-03-04T06:52:12;101264.22;;;7.66;68.26
70011;BME280;59543;37.950;-122.338;2023-03-04T06:54:38;101264.59;;;7.61;68.24
70011;BME280;59543;37.950;-122.338;2023-03-04T06:57:04;101265.44;;;7.62;67.91
70011;BME280;59543;37.950;-122.338;2023-03-04T06:59:30;101272.84;;;7.58;68.24
70011;BME280;59543;37.950;-122.338;2023-03-04T07:01:56;101278.94;;;7.60;67.89
70011;BME280;59543;37.950;-122.338;2023-03-04T07:04:22;101272.00;;;7.57;68.04
70011;BME280;59543;37.950;-122.338;2023-03-04T07:06:49;101270.16;;;7.58;68.00
70011;BME280;59543;37.950;-122.338;2023-03-04T07:09:15;101273.94;;;7.55;67.58
70011;BME280;59543;37.950;-122.338;2023-03-04T07:11:41;101276.16;;;7.62;67.83
70011;BME280;59543;37.950;-122.338;2023-03-04T07:14:07;101272.00;;;7.57;67.27
70011;BME280;59543;37.950;-122.338;2023-03-04T07:16:33;101253.84;;;7.50;67.24
70011;BME280;59543;37.950;-122.338;2023-03-04T07:18:59;101257.25;;;7.52;67.36
70011;BME280;59543;37.950;-122.338;2023-03-04T07:21:24;101245.88;;;7.61;66.34
70011;BME280;59543;37.950;-122.338;2023-03-04T07:23:50;101245.88;;;7.61;65.02
70011;BME280;59543;37.950;-122.338;2023-03-04T07:26:16;101244.75;;;7.64;65.12
70011;BME280;59543;37.950;-122.338;2023-03-04T07:28:43;101243.28;;;7.60;64.21
70011;BME280;59543;37.950;-122.338;2023-03-04T07:33:34;101254.81;;;7.49;63.25
70011;BME280;59543;37.950;-122.338;2023-03-04T07:36:00;101246.38;;;7.42;62.85
70011;BME280;59543;37.950;-122.338;2023-03-04T07:38:26;101251.78;;;7.53;63.01
70011;BME280;59543;37.950;-122.338;2023-03-04T07:40:56;101249.72;;;7.57;62.32
70011;BME280;59543;37.950;-122.338;2023-03-04T07:43:21;101240.00;;;7.56;62.95
70011;BME280;59543;37.950;-122.338;2023-03-04T07:45:47;101230.84;;;7.47;64.10
70011;BME280;59543;37.950;-122.338;2023-03-04T07:48:13;101242.19;;;7.62;66.40
70011;BME280;59543;37.950;-122.338;2023-03-04T07:50:39;101250.50;;;7.70;67.13
70011;BME280;59543;37.950;-122.338;2023-03-04T07:53:05;101258.41;;;7.72;67.47
70011;BME280;59543;37.950;-122.338;2023-03-04T07:55:30;101250.66;;;7.80;67.23
70011;BME280;59543;37.950;-122.338;2023-03-04T07:57:56;101251.50;;;7.81;67.81
70011;BME280;59543;37.950;-122.338;2023-03-04T08:00:22;101240.53;;;7.84;67.76
70011;BME280;59543;37.950;-122.338;2023-03-04T08:02:48;101233.97;;;7.76;67.55
70011;BME280;59543;37.950;-122.338;2023-03-04T08:05:14;101217.03;;;7.76;67.70
70011;BME280;59543;37.950;-122.338;2023-03-04T08:07:40;101224.44;;;7.72;68.10
70011;BME280;59543;37.950;-122.338;2023-03-04T08:10:06;101227.34;;;7.69;67.92
70011;BME280;59543;37.950;-122.338;2023-03-04T08:12:33;101235.28;;;7.71;67.80
70011;BME280;59543;37.950;-122.338;2023-03-04T08:14:59;101234.16;;;7.62;68.40
70011;BME280;59543;37.950;-122.338;2023-03-04T08:17:24;101231.50;;;7.62;68.69
70011;BME280;59543;37.950;-122.338;2023-03-04T08:19:50;101237.69;;;7.63;69.00
70011;BME280;59543;37.950;-122.338;2023-03-04T08:22:16;101236.47;;;7.55;69.02
70011;BME280;59543;37.950;-122.338;2023-03-04T08:24:42;101231.34;;;7.52;68.58
70011;BME280;59543;37.950;-122.338;2023-03-04T08:27:08;101228.16;;;7.47;69.11
70011;BME280;59543;37.950;-122.338;2023-03-04T08:29:34;101231.31;;;7.41;67.85
70011;BME280;59543;37.950;-122.338;2023-03-04T08:32:00;101231.97;;;7.56;67.66
70011;BME280;59543;37.950;-122.338;2023-03-04T08:34:26;101226.47;;;7.46;67.66
70011;BME280;59543;37.950;-122.338;2023-03-04T08:36:52;101225.13;;;7.52;67.60
70011;BME280;59543;37.950;-122.338;2023-03-04T08:39:18;101232.19;;;7.53;67.23
70011;BME280;59543;37.950;-122.338;2023-03-04T08:41:45;101244.38;;;7.57;67.15
70011;BME280;59543;37.950;-122.338;2023-03-04T08:44:11;101235.44;;;7.45;66.21
70011;BME280;59543;37.950;-122.338;2023-03-04T08:46:38;101253.63;;;7.53;63.84
70011;BME280;59543;37.950;-122.338;2023-03-04T08:49:04;101249.97;;;7.54;62.75
70011;BME280;59543;37.950;-122.338;2023-03-04T08:51:30;101241.19;;;7.52;59.23
70011;BME280;59543;37.950;-122.338;2023-03-04T08:53:56;101248.25;;;7.53;59.62
70011;BME280;59543;37.950;-122.338;2023-03-04T08:56:22;101242.53;;;7.57;57.68
70011;BME280;59543;37.950;-122.338;2023-03-04T08:58:48;101237.88;;;7.48;56.54
70011;BME280;59543;37.950;-122.338;2023-03-04T09:01:14;101246.78;;;7.49;56.24
70011;BME280;59543;37.950;-122.338;2023-03-04T09:03:40;101239.09;;;7.44;54.78
70011;BME280;59543;37.950;-122.338;2023-03-04T09:06:06;101241.06;;;7.53;54.12
70011;BME280;59543;37.950;-122.338;2023-03-04T09:08:35;101241.56;;;7.47;53.78
70011;BME280;59543;37.950;-122.338;2023-03-04T09:11:01;101250.44;;;7.48;53.39
70011;BME280;59543;37.950;-122.338;2023-03-04T09:13:28;101252.78;;;7.52;53.80
70011;BME280;59543;37.950;-122.338;2023-03-04T09:15:54;101241.78;;;7.44;53.19
70011;BME280;59543;37.950;-122.338;2023-03-04T09:18:20;101237.03;;;7.48;52.62
70011;BME280;59543;37.950;-122.338;2023-03-04T09:20:47;101241.19;;;7.52;51.42
70011;BME280;59543;37.950;-122.338;2023-03-04T09:23:13;101242.13;;;7.40;51.30
70011;BME280;59543;37.950;-122.338;2023-03-04T09:25:42;101239.84;;;7.46;52.09
70011;BME280;59543;37.950;-122.338;2023-03-04T09:28:09;101234.75;;;7.54;52.08
70011;BME280;59543;37.950;-122.338;2023-03-04T09:30:35;101231.31;;;7.41;52.75
70011;BME280;59543;37.950;-122.338;2023-03-04T09:33:01;101227.31;;;7.47;52.34
70011;BME280;59543;37.950;-122.338;2023-03-04T09:35:27;101227.03;;;7.39;53.12
70011;BME280;59543;37.950;-122.338;2023-03-04T09:37:54;101222.66;;;7.38;53.37
70011;BME280;59543;37.950;-122.338;2023-03-04T09:40:22;101212.69;;;7.40;53.47
70011;BME280;59543;37.950;-122.338;2023-03-04T09:42:50;101205.75;;;7.37;52.86
70011;BME280;59543;37.950;-122.338;2023-03-04T09:45:19;101202.00;;;7.51;52.47
70011;BME280;59543;37.950;-122.338;2023-03-04T09:47:47;101196.28;;;7.44;53.19
70011;BME280;59543;37.950;-122.338;2023-03-04T09:50:13;101192.84;;;7.42;53.45
70011;BME280;59543;37.950;-122.338;2023-03-04T10:00:20;101182.28;;;7.41;56.43
70011;BME280;59543;37.950;-122.338;2023-03-04T10:02:53;101176.31;;;7.37;57.18
70011;BME280;59543;37.950;-122.338;2023-03-04T10:05:26;101185.06;;;7.39;57.96
70011;BME280;59543;37.950;-122.338;2023-03-04T10:07:59;101175.69;;;7.33;58.86
70011;BME280;59543;37.950;-122.338;2023-03-04T10:10:32;101180.56;;;7.28;59.14
70011;BME280;59543;37.950;-122.338;2023-03-04T10:13:00;101175.81;;;7.32;59.83
70011;BME280;59543;37.950;-122.338;2023-03-04T10:18:18;101177.16;;;7.38;60.04
70011;BME280;59543;37.950;-122.338;2023-03-04T10:23:46;101156.81;;;7.24;61.42
70011;BME280;59543;37.950;-122.338;2023-03-04T10:26:11;101164.91;;;7.11;62.02
70011;BME280;59543;37.950;-122.338;2023-03-04T10:28:37;101155.69;;;7.15;61.96
70011;BME280;59543;37.950;-122.338;2023-03-04T10:33:30;101136.81;;;7.05;62.64
70011;BME280;59543;37.950;-122.338;2023-03-04T10:38:27;101149.28;;;7.29;62.24
70011;BME280;59543;37.950;-122.338;2023-03-04T10:40:53;101156.81;;;7.24;62.07
70011;BME280;59543;37.950;-122.338;2023-03-04T10:43:20;101151.91;;;7.18;62.76
70011;BME280;59543;37.950;-122.338;2023-03-04T10:45:46;101146.69;;;7.16;63.22
70011;BME280;59543;37.950;-122.338;2023-03-04T10:48:17;101153.97;;;7.14;63.77
70011;BME280;59543;37.950;-122.338;2023-03-04T10:50:44;101145.25;;;7.23;62.90
70011;BME280;59543;37.950;-122.338;2023-03-04T10:53:20;101154.03;;;7.25;62.58
70011;BME280;59543;37.950;-122.338;2023-03-04T10:55:49;101158.72;;;7.22;62.94
70011;BME280;59543;37.950;-122.338;2023-03-04T10:58:15;101157.88;;;7.21;62.70
70011;BME280;59543;37.950;-122.338;2023-03-04T11:00:44;101164.72;;;7.25;62.70
70011;BME280;59543;37.950;-122.338;2023-03-04T11:03:28;101166.81;;;7.33;62.15
70011;BME280;59543;37.950;-122.338;2023-03-04T11:06:04;101154.97;;;7.24;63.27
70011;BME280;59543;37.950;-122.338;2023-03-04T11:08:30;101133.94;;;7.20;62.92
70011;BME280;59543;37.950;-122.338;2023-03-04T11:10:56;101125.72;;;7.34;62.65
70011;BME280;59543;37.950;-122.338;2023-03-04T11:13:23;101116.94;;;7.32;63.32
70011;BME280;59543;37.950;-122.338;2023-03-04T11:18:15;101132.75;;;7.35;63.56
70011;BME280;59543;37.950;-122.338;2023-03-04T11:20:42;101137.50;;;7.31;63.54
70011;BME280;59543;37.950;-122.338;2023-03-04T11:23:18;101127.59;;;7.21;64.49
70011;BME280;59543;37.950;-122.338;2023-03-04T11:25:51;101117.28;;;7.27;63.63
70011;BME280;59543;37.950;-122.338;2023-03-04T11:28:41;101104.06;;;7.37;63.77
70011;BME280;59543;37.950;-122.338;2023-03-04T11:31:12;101111.34;;;7.35;63.76
70011;BME280;59543;37.950;-122.338;2023-03-04T11:38:42;101107.19;;;7.20;64.64
70011;BME280;59543;37.950;-122.338;2023-03-04T11:43:41;101114.53;;;7.40;63.70
70011;BME280;59543;37.950;-122.338;2023-03-04T11:46:18;101120.19;;;7.24;64.17
70011;BME280;59543;37.950;-122.338;2023-03-04T11:54:16;101106.09;;;7.22;63.55
70011;BME280;59543;37.950;-122.338;2023-03-04T11:56:52;101109.72;;;7.21;63.98
70011;BME280;59543;37.950;-122.338;2023-03-04T12:02:12;101130.66;;;7.27;64.23
70011;BME280;59543;37.950;-122.338;2023-03-04T12:12:37;101115.22;;;7.31;64.58
70011;BME280;59543;37.950;-122.338;2023-03-04T12:28:16;101110.97;;;7.28;65.64
70011;BME280;59543;37.950;-122.338;2023-03-04T12:36:35;101109.38;;;7.26;65.30
70011;BME280;59543;37.950;-122.338;2023-03-04T12:41:40;101078.63;;;7.31;65.47
70011;BME280;59543;37.950;-122.338;2023-03-04T12:44:15;101088.59;;;7.29;65.68
70011;BME280;59543;37.950;-122.338;2023-03-04T12:46:51;101079.09;;;7.37;65.53
70011;BME280;59543;37.950;-122.338;2023-03-04T12:50:12;101064.88;;;7.36;65.41
70011;BME280;59543;37.950;-122.338;2023-03-04T12:52:25;101077.75;;;7.31;65.61
70011;BME280;59543;37.950;-122.338;2023-03-04T12:54:56;101077.28;;;7.26;65.95
70011;BME280;59543;37.950;-122.338;2023-03-04T12:57:25;101080.06;;;7.13;66.56
70011;BME280;59543;37.950;-122.338;2023-03-04T13:02:40;101075.06;;;7.08;67.06
70011;BME280;59543;37.950;-122.338;2023-03-04T13:05:22;101072.13;;;7.12;66.98
70011;BME280;59543;37.950;-122.338;2023-03-04T13:07:58;101083.59;;;7.14;66.82
70011;BME280;59543;37.950;-122.338;2023-03-04T13:10:26;101084.78;;;7.09;67.06
70011;BME280;59543;37.950;-122.338;2023-03-04T13:12:56;101069.59;;;7.21;66.60
70011;BME280;59543;37.950;-122.338;2023-03-04T13:15:27;101057.78;;;7.13;67.01
70011;BME280;59543;37.950;-122.338;2023-03-04T13:20:41;101047.94;;;7.24;67.32
70011;BME280;59543;37.950;-122.338;2023-03-04T13:25:45;101051.25;;;7.17;68.40
70011;BME280;59543;37.950;-122.338;2023-03-04T13:28:13;101050.59;;;7.02;69.32
70011;BME280;59543;37.950;-122.338;2023-03-04T13:38:33;101024.81;;;7.01;70.84
70011;BME280;59543;37.950;-122.338;2023-03-04T13:43:49;101031.66;;;7.16;70.96
70011;BME280;59543;37.950;-122.338;2023-03-04T13:51:16;101007.59;;;7.16;72.09
70011;BME280;59543;37.950;-122.338;2023-03-04T13:53:45;101006.47;;;7.19;71.89
70011;BME280;59543;37.950;-122.338;2023-03-04T13:58:43;101003.56;;;7.22;72.21
70011;BME280;59543;37.950;-122.338;2023-03-04T14:01:26;101005.28;;;7.23;72.33
70011;BME280;59543;37.950;-122.338;2023-03-04T14:03:53;100993.09;;;7.19;72.72